Atlantic City, Wyoming
Current Conditions -  °F | °C
As of 5:35 AM on Wednesday 26 Nov 2014 (Local Time) from KFWZ Reporting Station
Broken Clouds Broken Clouds  
Wind Chill: 29°   Ceiling: 3300
Heat Index: 36°   Visibility: 10mi
Dew Point: 27°   Wind: 9mph
Humidity: 70%   Direction: 280°W
Pressure: 30"   Gusts: 18mph
Location:  42.6143°N, 108.586°W
Report Text: KFWZ 261235Z AUTO 28008G16KT 10SM BKN033 BKN039 BKN110 02/M03 A3000 RMK AO2
Loading
Personal Weather Stations






























Interactive Weather Map New forecast layout! Learn more

10-Day Weather Forecast

Advertisements
Track Severe Weather on mobile